createdAt,value
2022-12-05T00:00:29.299Z,46.21
2022-12-05T00:02:56.634Z,45.72
2022-12-05T00:05:24.737Z,45.80
2022-12-05T00:07:51.869Z,49.03
2022-12-05T00:10:19.381Z,48.28
2022-12-05T00:12:46.492Z,48.49
2022-12-05T00:15:13.804Z,48.69
2022-12-05T00:17:41.172Z,53.77
2022-12-05T00:20:08.837Z,51.29
2022-12-05T00:22:37.393Z,52.15
2022-12-05T00:25:06.021Z,50.44
2022-12-05T00:27:33.311Z,50.41
2022-12-05T00:30:00.757Z,51.81
2022-12-05T00:32:29.030Z,51.93
2022-12-05T00:34:56.300Z,51.15
2022-12-05T00:37:23.622Z,50.10
2022-12-05T00:39:50.995Z,51.16
2022-12-05T00:42:18.089Z,52.36
2022-12-05T00:44:45.192Z,51.74
2022-12-05T00:47:12.556Z,54.28
2022-12-05T00:49:39.652Z,50.94
2022-12-05T00:52:06.736Z,50.47
2022-12-05T00:54:34.089Z,48.95
2022-12-05T00:57:01.244Z,51.54
2022-12-05T00:59:28.322Z,50.93
2022-12-05T01:01:55.657Z,50.08
2022-12-05T01:04:23.970Z,49.58
2022-12-05T01:06:51.393Z,52.28
2022-12-05T01:09:20.077Z,54.89
2022-12-05T01:11:47.172Z,55.87
2022-12-05T01:14:15.362Z,52.51
2022-12-05T01:16:43.916Z,54.78
2022-12-05T01:19:12.659Z,54.51
2022-12-05T01:21:39.776Z,54.92
2022-12-05T01:24:07.253Z,57.53
2022-12-05T01:26:34.466Z,54.67
2022-12-05T01:29:01.685Z,56.02
2022-12-05T01:31:30.132Z,54.67
2022-12-05T01:33:57.793Z,52.17
2022-12-05T01:36:25.206Z,55.90
2022-12-05T01:38:52.552Z,56.98
2022-12-05T01:41:21.003Z,54.45
2022-12-05T01:43:55.415Z,56.06
2022-12-05T01:46:22.926Z,53.98
2022-12-05T01:48:50.437Z,53.53
2022-12-05T01:51:18.591Z,53.75
2022-12-05T01:53:45.977Z,54.82
2022-12-05T01:56:13.074Z,53.27
2022-12-05T01:58:40.504Z,54.61
2022-12-05T02:01:07.951Z,53.76
2022-12-05T02:03:35.517Z,53.42
2022-12-05T02:06:02.608Z,55.00
2022-12-05T02:08:29.756Z,53.43
2022-12-05T02:10:57.500Z,53.79
2022-12-05T02:13:43.347Z,52.98
2022-12-05T02:16:13.781Z,51.83
2022-12-05T02:18:47.141Z,53.38
2022-12-05T02:21:29.861Z,55.35
2022-12-05T02:24:08.017Z,53.18
2022-12-05T02:26:42.538Z,52.29
2022-12-05T02:29:13.910Z,52.43
2022-12-05T02:31:46.687Z,51.72
2022-12-05T02:34:20.292Z,51.42
2022-12-05T02:37:01.994Z,53.17
2022-12-05T02:39:32.174Z,56.64
2022-12-05T02:42:01.701Z,54.15
2022-12-05T02:44:48.993Z,54.32
2022-12-05T02:47:18.044Z,51.62
2022-12-05T02:49:45.215Z,53.74
2022-12-05T02:52:13.016Z,55.36
2022-12-05T02:54:41.343Z,55.71
2022-12-05T02:57:08.803Z,57.27
2022-12-05T02:59:36.147Z,53.43
2022-12-05T03:02:03.537Z,54.20
2022-12-05T03:04:30.819Z,52.21
2022-12-05T03:07:03.355Z,51.38
2022-12-05T03:09:35.628Z,54.97
2022-12-05T03:12:08.686Z,57.51
2022-12-05T03:14:37.543Z,55.71
2022-12-05T03:17:06.149Z,55.28
2022-12-05T03:19:51.868Z,57.76
2022-12-05T03:22:21.320Z,60.13
2022-12-05T03:24:48.402Z,55.38
2022-12-05T03:27:23.894Z,56.41
2022-12-05T03:29:58.902Z,55.18
2022-12-05T03:32:32.396Z,56.45
2022-12-05T03:35:20.935Z,54.64
2022-12-05T03:37:53.271Z,52.96
2022-12-05T03:40:23.677Z,54.53
2022-12-05T03:43:02.809Z,54.25
2022-12-05T03:45:33.861Z,54.67
2022-12-05T03:48:05.571Z,53.63
2022-12-05T03:50:32.955Z,57.90
2022-12-05T03:55:51.240Z,57.24
2022-12-05T03:58:20.393Z,53.48
2022-12-05T04:00:48.101Z,53.49
2022-12-05T04:03:17.856Z,54.12
2022-12-05T04:05:46.814Z,57.53
2022-12-05T04:08:25.071Z,54.52
2022-12-05T04:10:53.802Z,58.10
2022-12-05T04:13:47.241Z,57.54
2022-12-05T04:16:35.623Z,56.46
2022-12-05T04:19:15.287Z,54.51
2022-12-05T04:21:44.172Z,57.00
2022-12-05T04:24:32.104Z,59.22
2022-12-05T04:27:03.749Z,58.10
2022-12-05T04:29:32.108Z,58.85
2022-12-05T04:31:59.763Z,61.47
2022-12-05T04:34:28.500Z,61.27
2022-12-05T04:36:57.646Z,61.49
2022-12-05T04:39:28.052Z,62.37
2022-12-05T04:41:56.404Z,60.18
2022-12-05T04:44:25.595Z,59.68
2022-12-05T04:46:53.722Z,59.76
2022-12-05T04:49:21.868Z,59.72
2022-12-05T04:51:52.975Z,59.64
2022-12-05T04:54:22.283Z,59.42
2022-12-05T04:56:50.436Z,60.41
2022-12-05T04:59:17.539Z,62.44
2022-12-05T05:01:55.952Z,61.76
2022-12-05T05:04:27.356Z,57.78
2022-12-05T05:06:54.751Z,57.83
2022-12-05T05:09:21.857Z,57.82
2022-12-05T05:11:48.947Z,55.16
2022-12-05T05:14:16.298Z,55.54
2022-12-05T05:16:43.609Z,54.80
2022-12-05T05:19:10.813Z,56.69
2022-12-05T05:21:38.881Z,54.80
2022-12-05T05:24:06.494Z,54.51
2022-12-05T05:26:34.387Z,55.64
2022-12-05T05:29:01.783Z,54.05
2022-12-05T05:31:28.948Z,55.79
2022-12-05T05:33:56.324Z,56.69
2022-12-05T05:36:24.488Z,57.86
2022-12-05T05:38:52.604Z,55.58
2022-12-05T05:41:20.915Z,57.81
2022-12-05T05:43:48.739Z,57.72
2022-12-05T05:46:16.468Z,56.93
2022-12-05T05:48:43.605Z,59.76
2022-12-05T05:51:11.583Z,59.40
2022-12-05T05:53:38.850Z,61.38
2022-12-05T05:56:10.300Z,61.50
2022-12-05T05:58:37.715Z,59.83
2022-12-05T06:01:08.100Z,58.29
2022-12-05T06:03:35.611Z,58.23
2022-12-05T06:06:04.385Z,59.33
2022-12-05T06:08:35.242Z,59.69
2022-12-05T06:11:07.517Z,59.99
2022-12-05T06:13:34.612Z,60.73
2022-12-05T06:16:01.772Z,59.29
2022-12-05T06:18:29.226Z,62.36
2022-12-05T06:20:56.978Z,58.66
2022-12-05T06:23:24.775Z,59.38
2022-12-05T06:25:52.700Z,60.48
2022-12-05T06:28:19.965Z,62.46
2022-12-05T06:30:47.072Z,60.86
2022-12-05T06:33:14.584Z,59.81
2022-12-05T06:35:42.909Z,59.47
2022-12-05T06:38:10.195Z,60.38
2022-12-05T06:40:40.922Z,60.14
2022-12-05T06:43:08.158Z,60.04
2022-12-05T06:45:37.217Z,58.84
2022-12-05T06:48:04.622Z,60.23
2022-12-05T06:50:31.714Z,60.92
2022-12-05T06:52:58.821Z,60.12
2022-12-05T06:55:26.218Z,59.16
2022-12-05T06:57:53.346Z,61.43
2022-12-05T07:00:39.110Z,60.37
2022-12-05T07:03:06.527Z,59.38
2022-12-05T07:05:35.858Z,59.13
2022-12-05T07:08:03.042Z,58.31
2022-12-05T07:10:30.436Z,59.09
2022-12-05T07:12:57.521Z,58.63
2022-12-05T07:15:24.800Z,59.98
2022-12-05T07:17:52.164Z,57.91
2022-12-05T07:20:19.265Z,57.62
2022-12-05T07:22:46.388Z,58.55
2022-12-05T07:25:13.752Z,60.35
2022-12-05T07:27:40.876Z,58.61
2022-12-05T07:30:08.314Z,56.00
2022-12-05T07:32:35.687Z,54.35
2022-12-05T07:35:02.828Z,54.24
2022-12-05T07:37:29.937Z,55.61
2022-12-05T07:39:57.526Z,54.58
2022-12-05T07:42:24.816Z,54.37
2022-12-05T07:44:51.933Z,55.74
2022-12-05T07:47:19.378Z,56.42
2022-12-05T07:49:46.486Z,55.00
2022-12-05T07:52:13.623Z,54.83
2022-12-05T07:54:41.006Z,58.56
2022-12-05T07:57:08.721Z,58.73
2022-12-05T07:59:35.838Z,56.62
2022-12-05T08:02:03.324Z,56.37
2022-12-05T08:04:30.763Z,54.93
2022-12-05T08:06:57.862Z,57.62
2022-12-05T08:09:24.984Z,58.00
2022-12-05T08:11:52.951Z,58.04
2022-12-05T08:14:20.263Z,56.89
2022-12-05T08:16:47.417Z,54.56
2022-12-05T08:19:16.944Z,54.80
2022-12-05T08:21:44.082Z,57.32
2022-12-05T08:24:11.217Z,55.80
2022-12-05T08:26:38.638Z,59.38
2022-12-05T08:29:09.544Z,57.91
2022-12-05T08:31:38.957Z,56.67
2022-12-05T08:34:06.341Z,58.22
2022-12-05T08:36:33.440Z,56.86
2022-12-05T08:39:01.705Z,55.42
2022-12-05T08:41:30.166Z,57.81
2022-12-05T08:43:59.875Z,59.35
2022-12-05T08:46:27.046Z,59.08
2022-12-05T08:48:54.435Z,59.29
2022-12-05T08:51:21.542Z,60.43
2022-12-05T08:53:48.766Z,59.01
2022-12-05T08:56:16.255Z,59.64
2022-12-05T08:58:43.360Z,58.77
2022-12-05T09:01:12.124Z,58.85
2022-12-05T09:03:43.302Z,59.38
2022-12-05T09:06:17.056Z,56.37
2022-12-05T09:08:44.551Z,57.61
2022-12-05T09:11:13.075Z,59.13
2022-12-05T09:13:40.566Z,56.18
2022-12-05T09:16:12.291Z,56.00
2022-12-05T09:18:39.421Z,55.26
2022-12-05T09:21:13.590Z,53.13
2022-12-05T09:23:41.116Z,54.43
2022-12-05T09:26:09.795Z,56.48
2022-12-05T09:28:36.929Z,56.77
2022-12-05T09:31:05.552Z,58.68
2022-12-05T09:33:34.155Z,60.31
2022-12-05T09:36:27.757Z,59.47
2022-12-05T09:38:55.468Z,59.20
2022-12-05T09:41:47.932Z,58.27
2022-12-05T09:44:15.294Z,55.90
2022-12-05T09:46:49.658Z,54.52
2022-12-05T09:49:17.067Z,56.65
2022-12-05T09:51:44.888Z,57.27
2022-12-05T09:54:12.387Z,57.06
2022-12-05T09:56:40.109Z,56.72
2022-12-05T09:59:15.905Z,56.83
2022-12-05T10:02:02.972Z,54.07
2022-12-05T10:04:30.475Z,54.53
2022-12-05T10:07:07.767Z,56.28
2022-12-05T10:09:42.092Z,58.81
2022-12-05T10:12:15.871Z,59.52
2022-12-05T10:14:49.312Z,58.45
2022-12-05T10:17:25.716Z,57.52
2022-12-05T10:19:54.012Z,58.15
2022-12-05T10:22:42.555Z,56.20
2022-12-05T10:25:09.926Z,56.99
2022-12-05T10:27:40.222Z,57.71
2022-12-05T10:30:18.130Z,59.40
2022-12-05T10:32:48.215Z,61.37
2022-12-05T10:35:15.491Z,57.50
2022-12-05T10:37:44.570Z,56.75
2022-12-05T10:40:12.457Z,59.98
2022-12-05T10:42:39.580Z,59.05
2022-12-05T10:45:08.034Z,56.43
2022-12-05T10:47:35.428Z,55.41
2022-12-05T10:50:04.587Z,53.53
2022-12-05T10:52:31.687Z,52.30
2022-12-05T10:55:00.899Z,53.86
2022-12-05T10:57:30.075Z,55.17
2022-12-05T10:59:57.560Z,54.27
2022-12-05T11:02:32.140Z,54.04
2022-12-05T11:04:59.817Z,55.56
2022-12-05T11:07:30.158Z,57.21
2022-12-05T11:09:58.184Z,57.60
2022-12-05T11:12:27.793Z,59.23
2022-12-05T11:15:07.510Z,57.82
2022-12-05T11:17:38.428Z,56.09
2022-12-05T11:20:18.131Z,54.24
2022-12-05T11:22:48.871Z,53.65
2022-12-05T11:25:28.384Z,55.22
2022-12-05T11:28:00.814Z,55.97
2022-12-05T11:30:29.146Z,52.77
2022-12-05T11:33:14.979Z,55.47
2022-12-05T11:35:42.334Z,56.68
2022-12-05T11:38:09.811Z,56.57
2022-12-05T11:40:42.979Z,58.19
2022-12-05T11:43:33.867Z,58.88
2022-12-05T11:46:00.898Z,58.95
2022-12-05T11:48:41.356Z,57.55
2022-12-05T11:51:08.378Z,57.18
2022-12-05T11:53:35.676Z,58.44
2022-12-05T11:56:21.411Z,56.82
2022-12-05T11:59:03.996Z,57.35
2022-12-05T12:01:46.225Z,55.21
2022-12-05T12:04:19.701Z,54.60
2022-12-05T12:06:53.337Z,54.94
2022-12-05T12:09:35.165Z,55.04
2022-12-05T12:12:04.644Z,55.71
2022-12-05T12:14:35.901Z,57.17
2022-12-05T12:17:18.314Z,57.76
2022-12-05T12:19:51.876Z,54.86
2022-12-05T12:22:21.717Z,56.50
2022-12-05T12:24:55.682Z,56.75
2022-12-05T12:27:36.802Z,56.00
2022-12-05T12:30:13.596Z,56.79
2022-12-05T12:32:40.685Z,57.17
2022-12-05T12:35:13.965Z,57.28
2022-12-05T12:38:17.191Z,58.42
2022-12-05T12:40:50.773Z,56.94
2022-12-05T12:43:51.515Z,56.85
2022-12-05T12:46:11.329Z,54.23
2022-12-05T12:48:54.845Z,56.44
2022-12-05T12:51:22.207Z,55.91
2022-12-05T12:53:58.527Z,56.52
2022-12-05T12:56:28.639Z,56.56
2022-12-05T12:59:09.160Z,58.20
2022-12-05T13:01:48.227Z,58.27
2022-12-05T13:04:16.265Z,58.37
2022-12-05T13:06:50.947Z,59.24
2022-12-05T13:09:26.754Z,58.32
2022-12-05T13:11:54.239Z,59.38
2022-12-05T13:14:24.272Z,58.66
2022-12-05T13:16:53.103Z,60.08
2022-12-05T13:19:24.868Z,58.14
2022-12-05T13:21:51.966Z,57.11
2022-12-05T13:24:19.680Z,57.28
2022-12-05T13:26:48.447Z,56.89
2022-12-05T13:29:23.614Z,58.88
2022-12-05T13:31:51.068Z,59.75
2022-12-05T13:34:39.652Z,60.04
2022-12-05T13:37:29.397Z,60.09
2022-12-05T13:40:15.368Z,59.22
2022-12-05T13:42:43.164Z,57.62
2022-12-05T13:45:11.219Z,55.99
2022-12-05T13:47:38.265Z,56.13
2022-12-05T13:50:10.664Z,59.54
2022-12-05T13:52:57.136Z,58.75
2022-12-05T13:55:36.439Z,57.04
2022-12-05T13:58:07.091Z,57.97
2022-12-05T14:00:37.034Z,59.04
2022-12-05T14:03:05.800Z,60.55
2022-12-05T14:05:36.897Z,59.82
2022-12-05T14:08:22.944Z,58.47
2022-12-05T14:10:50.419Z,58.70
2022-12-05T14:13:17.713Z,57.43
2022-12-05T14:15:48.966Z,56.83
2022-12-05T14:18:16.292Z,58.38
2022-12-05T14:21:09.370Z,56.03
2022-12-05T14:23:55.585Z,55.94
2022-12-05T14:26:22.675Z,56.84
2022-12-05T14:29:04.053Z,57.36
2022-12-05T14:31:38.744Z,55.17
2022-12-05T14:34:10.906Z,56.40
2022-12-05T14:36:39.356Z,55.80
2022-12-05T14:39:22.805Z,54.59
2022-12-05T14:41:55.773Z,56.05
2022-12-05T14:44:23.937Z,57.35
2022-12-05T14:46:51.067Z,58.38
2022-12-05T14:49:40.753Z,58.25
2022-12-05T14:52:12.149Z,58.47
2022-12-05T14:54:39.281Z,57.24
2022-12-05T14:57:11.417Z,58.72
2022-12-05T14:59:41.868Z,57.44
2022-12-05T15:02:11.601Z,57.91
2022-12-05T15:04:41.937Z,57.10
2022-12-05T15:07:09.955Z,57.83
2022-12-05T15:09:42.933Z,57.59
2022-12-05T15:12:17.445Z,57.89
2022-12-05T15:14:47.490Z,58.67
2022-12-05T15:17:16.465Z,59.50
2022-12-05T15:19:51.213Z,59.65
2022-12-05T15:22:19.817Z,58.91
2022-12-05T15:24:46.919Z,58.16
2022-12-05T15:27:16.691Z,57.94
2022-12-05T15:29:44.064Z,57.72
2022-12-05T15:32:11.117Z,60.55
2022-12-05T15:34:54.370Z,60.77
2022-12-05T15:37:25.828Z,63.25
2022-12-05T15:39:56.882Z,61.97
2022-12-05T15:42:29.651Z,59.71
2022-12-05T15:45:11.614Z,59.56
2022-12-05T15:47:40.354Z,58.15
2022-12-05T15:50:14.119Z,58.18
2022-12-05T15:52:42.809Z,58.10
2022-12-05T15:55:18.343Z,58.63
2022-12-05T15:57:56.586Z,59.50
2022-12-05T16:00:26.057Z,58.40
2022-12-05T16:02:56.551Z,56.94
2022-12-05T16:05:29.719Z,59.11
2022-12-05T16:07:57.169Z,57.91
2022-12-05T16:10:29.300Z,57.10
2022-12-05T16:13:01.409Z,56.74
2022-12-05T16:15:28.875Z,56.51
2022-12-05T16:17:59.727Z,55.69
2022-12-05T16:20:31.626Z,57.35
2022-12-05T16:23:00.473Z,56.18
2022-12-05T16:25:37.023Z,56.59
2022-12-05T16:28:11.426Z,54.50
2022-12-05T16:30:57.470Z,56.25
2022-12-05T16:33:24.643Z,54.88
2022-12-05T16:35:52.473Z,55.93
2022-12-05T16:38:24.679Z,55.19
2022-12-05T16:40:52.466Z,54.35
2022-12-05T16:43:39.514Z,53.06
2022-12-05T16:46:13.230Z,56.07
2022-12-05T16:48:50.225Z,57.26
2022-12-05T16:51:18.743Z,57.92
2022-12-05T16:53:49.328Z,59.50
2022-12-05T16:56:18.822Z,61.01
2022-12-05T16:58:46.219Z,61.39
2022-12-05T17:01:15.675Z,61.46
2022-12-05T17:03:42.905Z,62.13
2022-12-05T17:06:10.595Z,62.70
2022-12-05T17:08:38.104Z,61.47
2022-12-05T17:11:08.015Z,62.58
2022-12-05T17:13:36.104Z,63.16
2022-12-05T17:16:03.806Z,63.56
2022-12-05T17:18:32.088Z,62.77
2022-12-05T17:21:01.491Z,61.73
2022-12-05T17:23:29.015Z,63.53
2022-12-05T17:25:56.736Z,61.85
2022-12-05T17:28:24.490Z,61.12
2022-12-05T17:30:51.736Z,60.50
2022-12-05T17:33:19.626Z,61.56
2022-12-05T17:35:49.529Z,61.43
2022-12-05T17:38:16.975Z,58.83
2022-12-05T17:40:44.829Z,59.64
2022-12-05T17:43:13.330Z,58.13
2022-12-05T17:45:40.736Z,58.13
2022-12-05T17:48:16.823Z,58.25
2022-12-05T17:50:45.743Z,59.22
2022-12-05T17:53:14.128Z,59.74
2022-12-05T17:55:42.053Z,58.40
2022-12-05T17:58:09.934Z,58.92
2022-12-05T18:00:37.155Z,57.83
2022-12-05T18:03:05.096Z,58.01
2022-12-05T18:05:32.325Z,58.58
2022-12-05T18:07:59.615Z,58.62
2022-12-05T18:10:27.395Z,58.93
2022-12-05T18:12:54.595Z,59.35
2022-12-05T18:15:21.862Z,57.99
2022-12-05T18:17:49.243Z,55.96
2022-12-05T18:20:16.421Z,55.61
2022-12-05T18:22:46.582Z,55.25
2022-12-05T18:25:14.148Z,58.05
2022-12-05T18:27:41.836Z,56.91
2022-12-05T18:30:09.469Z,57.42
2022-12-05T18:32:37.119Z,57.20
2022-12-05T18:35:11.339Z,58.78
2022-12-05T18:37:40.659Z,57.80
2022-12-05T18:40:08.718Z,56.68
2022-12-05T18:42:36.112Z,56.53
2022-12-05T18:45:04.113Z,55.81
2022-12-05T18:47:31.531Z,56.91
2022-12-05T18:49:59.423Z,57.42
2022-12-05T18:52:27.244Z,57.79
2022-12-05T18:55:09.822Z,56.86
2022-12-05T18:57:43.081Z,54.89
2022-12-05T19:00:11.121Z,56.74
2022-12-05T19:02:38.768Z,55.69
2022-12-05T19:05:06.970Z,54.55
2022-12-05T19:07:34.451Z,54.96
2022-12-05T19:10:02.085Z,55.84
2022-12-05T19:12:30.710Z,54.83
2022-12-05T19:14:58.558Z,55.15
2022-12-05T19:17:26.302Z,55.02
2022-12-05T19:19:54.910Z,53.32
2022-12-05T19:22:24.675Z,53.58
2022-12-05T19:24:52.555Z,56.30
2022-12-05T19:27:21.450Z,57.67
2022-12-05T19:29:49.332Z,56.37
2022-12-05T19:32:16.561Z,56.07
2022-12-05T19:34:46.312Z,56.20
2022-12-05T19:37:13.482Z,59.18
2022-12-05T19:39:42.793Z,58.35
2022-12-05T19:42:10.960Z,57.90
2022-12-05T19:44:38.565Z,57.92
2022-12-05T19:47:06.214Z,57.18
2022-12-05T19:49:40.892Z,56.86
2022-12-05T19:52:08.604Z,59.69
2022-12-05T19:54:36.548Z,58.21
2022-12-05T19:57:04.084Z,58.51
2022-12-05T19:59:31.326Z,58.63
2022-12-05T20:01:59.801Z,59.86
2022-12-05T20:04:29.035Z,59.68
2022-12-05T20:06:56.220Z,57.98
2022-12-05T20:09:23.859Z,58.37
2022-12-05T20:11:55.160Z,56.92
2022-12-05T20:14:24.351Z,59.07
2022-12-05T20:16:52.525Z,59.98
2022-12-05T20:19:20.435Z,59.79
2022-12-05T20:21:48.030Z,58.11
2022-12-05T20:24:15.874Z,59.65
2022-12-05T20:26:44.472Z,59.28
2022-12-05T20:29:12.150Z,61.77
2022-12-05T20:31:40.760Z,60.63
2022-12-05T20:34:14.034Z,57.97
2022-12-05T20:36:41.658Z,56.80
2022-12-05T20:39:10.876Z,58.77
2022-12-05T20:41:38.959Z,59.08
2022-12-05T20:44:07.684Z,59.55
2022-12-05T20:46:35.702Z,60.45
2022-12-05T20:49:03.813Z,61.42
2022-12-05T20:51:32.683Z,61.62
2022-12-05T20:54:01.090Z,62.69
2022-12-05T20:56:29.327Z,60.34
2022-12-05T20:58:58.417Z,59.29
2022-12-05T21:01:26.366Z,58.65
2022-12-05T21:03:54.310Z,59.87
2022-12-05T21:06:29.192Z,58.85
2022-12-05T21:08:56.774Z,59.48
2022-12-05T21:11:24.796Z,60.56
2022-12-05T21:13:52.588Z,60.95
2022-12-05T21:16:23.099Z,61.10
2022-12-05T21:18:50.800Z,58.72
2022-12-05T21:21:18.959Z,56.82
2022-12-05T21:23:46.587Z,58.14
2022-12-05T21:26:14.761Z,56.89
2022-12-05T21:28:42.314Z,55.28
2022-12-05T21:31:13.886Z,56.07
2022-12-05T21:33:41.950Z,58.04
2022-12-05T21:36:10.013Z,54.39
2022-12-05T21:38:37.236Z,54.18
2022-12-05T21:41:04.890Z,55.29
2022-12-05T21:43:32.673Z,55.64
2022-12-05T21:45:59.896Z,57.47
2022-12-05T21:48:27.900Z,57.62
2022-12-05T21:50:55.035Z,57.67
2022-12-05T21:53:22.519Z,56.67
2022-12-05T21:56:03.468Z,60.09
2022-12-05T21:58:30.707Z,61.97
2022-12-05T22:00:58.180Z,59.37
2022-12-05T22:03:25.551Z,59.02
2022-12-05T22:06:06.238Z,57.09
2022-12-05T22:08:33.931Z,58.81
2022-12-05T22:11:07.980Z,54.68
2022-12-05T22:13:35.375Z,53.54
2022-12-05T22:16:03.030Z,53.11
2022-12-05T22:18:30.591Z,54.83
2022-12-05T22:20:58.395Z,53.53
2022-12-05T22:23:25.744Z,53.67
2022-12-05T22:25:56.626Z,57.41
2022-12-05T22:28:23.995Z,56.43
2022-12-05T22:30:51.152Z,57.35
2022-12-05T22:33:18.336Z,57.57
2022-12-05T22:35:50.180Z,55.93
2022-12-05T22:38:17.292Z,55.78
2022-12-05T22:40:44.401Z,56.67
2022-12-05T22:43:11.779Z,57.98
2022-12-05T22:45:39.905Z,54.46
2022-12-05T22:48:07.033Z,54.27
2022-12-05T22:50:34.402Z,53.10
2022-12-05T22:53:01.525Z,55.00
2022-12-05T22:55:29.321Z,55.35
2022-12-05T22:57:56.691Z,55.08
2022-12-05T23:00:23.807Z,53.50
2022-12-05T23:02:52.425Z,53.01
2022-12-05T23:05:19.791Z,52.50
2022-12-05T23:07:46.990Z,52.91
2022-12-05T23:10:14.159Z,53.83
2022-12-05T23:12:41.610Z,54.24
2022-12-05T23:15:09.145Z,55.50
2022-12-05T23:17:36.305Z,56.01
2022-12-05T23:20:04.244Z,56.98
2022-12-05T23:22:31.462Z,59.60
2022-12-05T23:24:58.576Z,59.83
2022-12-05T23:27:26.034Z,58.25
2022-12-05T23:29:53.451Z,57.78
2022-12-05T23:32:21.781Z,59.67
2022-12-05T23:34:49.137Z,59.67
2022-12-05T23:37:16.237Z,61.18
2022-12-05T23:39:43.771Z,61.42
2022-12-05T23:42:15.168Z,59.55
2022-12-05T23:44:42.840Z,60.92
2022-12-05T23:47:10.102Z,63.08
2022-12-05T23:49:37.545Z,62.78
2022-12-05T23:52:04.636Z,61.06
2022-12-05T23:54:31.729Z,62.17
2022-12-05T23:56:59.142Z,61.26
2022-12-05T23:59:27.284Z,59.77
